sensor_id;sensor_type;location;lat;lon;timestamp;P1;durP1;ratioP1;P2;durP2;ratioP2
30998;SDS011;20549;50.042;8.968;2022-12-15T00:01:23;19.53;;;11.47;;
30998;SDS011;20549;50.042;8.968;2022-12-15T00:04:07;17.73;;;11.77;;
30998;SDS011;20549;50.042;8.968;2022-12-15T00:06:52;16.57;;;12.07;;
30998;SDS011;20549;50.042;8.968;2022-12-15T00:09:37;16.23;;;11.57;;
30998;SDS011;20549;50.042;8.968;2022-12-15T00:12:22;17.60;;;12.53;;
30998;SDS011;20549;50.042;8.968;2022-12-15T00:15:06;18.30;;;12.23;;
30998;SDS011;20549;50.042;8.968;2022-12-15T00:17:51;18.33;;;12.73;;
30998;SDS011;20549;50.042;8.968;2022-12-15T00:20:36;17.77;;;12.70;;
30998;SDS011;20549;50.042;8.968;2022-12-15T00:23:21;16.97;;;12.00;;
30998;SDS011;20549;50.042;8.968;2022-12-15T00:26:06;16.07;;;12.63;;
30998;SDS011;20549;50.042;8.968;2022-12-15T00:28:50;15.03;;;11.20;;
30998;SDS011;20549;50.042;8.968;2022-12-15T00:31:35;13.83;;;11.80;;
30998;SDS011;20549;50.042;8.968;2022-12-15T00:34:19;17.00;;;11.93;;
30998;SDS011;20549;50.042;8.968;2022-12-15T00:37:04;14.90;;;11.33;;
30998;SDS011;20549;50.042;8.968;2022-12-15T00:39:48;14.60;;;10.87;;
30998;SDS011;20549;50.042;8.968;2022-12-15T00:42:15;18.63;;;11.47;;
30998;SDS011;20549;50.042;8.968;2022-12-15T00:44:41;13.50;;;10.87;;
30998;SDS011;20549;50.042;8.968;2022-12-15T00:47:08;16.43;;;11.67;;
30998;SDS011;20549;50.042;8.968;2022-12-15T00:49:35;16.50;;;11.70;;
30998;SDS011;20549;50.042;8.968;2022-12-15T00:52:20;16.30;;;11.80;;
30998;SDS011;20549;50.042;8.968;2022-12-15T00:55:04;17.23;;;11.77;;
30998;SDS011;20549;50.042;8.968;2022-12-15T00:57:50;17.80;;;12.03;;
30998;SDS011;20549;50.042;8.968;2022-12-15T01:00:34;17.43;;;12.30;;
30998;SDS011;20549;50.042;8.968;2022-12-15T01:03:20;17.83;;;12.40;;
30998;SDS011;20549;50.042;8.968;2022-12-15T01:06:04;17.37;;;12.10;;
30998;SDS011;20549;50.042;8.968;2022-12-15T01:08:51;19.60;;;12.47;;
30998;SDS011;20549;50.042;8.968;2022-12-15T01:11:35;18.13;;;11.40;;
30998;SDS011;20549;50.042;8.968;2022-12-15T01:14:20;17.90;;;12.40;;
30998;SDS011;20549;50.042;8.968;2022-12-15T01:17:05;15.50;;;11.23;;
30998;SDS011;20549;50.042;8.968;2022-12-15T01:19:49;17.37;;;11.37;;
30998;SDS011;20549;50.042;8.968;2022-12-15T01:22:37;19.90;;;11.60;;
30998;SDS011;20549;50.042;8.968;2022-12-15T01:25:04;15.73;;;11.83;;
30998;SDS011;20549;50.042;8.968;2022-12-15T01:27:30;17.43;;;11.67;;
30998;SDS011;20549;50.042;8.968;2022-12-15T01:29:57;17.33;;;12.53;;
30998;SDS011;20549;50.042;8.968;2022-12-15T01:32:23;15.37;;;11.80;;
30998;SDS011;20549;50.042;8.968;2022-12-15T01:34:50;17.53;;;12.03;;
30998;SDS011;20549;50.042;8.968;2022-12-15T01:37:16;14.67;;;10.97;;
30998;SDS011;20549;50.042;8.968;2022-12-15T01:39:43;16.53;;;11.17;;
30998;SDS011;20549;50.042;8.968;2022-12-15T01:42:28;16.10;;;12.10;;
30998;SDS011;20549;50.042;8.968;2022-12-15T01:47:21;16.00;;;11.87;;
30998;SDS011;20549;50.042;8.968;2022-12-15T01:49:47;15.80;;;11.60;;
30998;SDS011;20549;50.042;8.968;2022-12-15T01:52:15;20.40;;;12.10;;
30998;SDS011;20549;50.042;8.968;2022-12-15T01:54:41;16.97;;;10.80;;
30998;SDS011;20549;50.042;8.968;2022-12-15T01:57:14;17.93;;;12.23;;
30998;SDS011;20549;50.042;8.968;2022-12-15T01:59:41;17.73;;;11.87;;
30998;SDS011;20549;50.042;8.968;2022-12-15T02:02:06;16.33;;;11.70;;
30998;SDS011;20549;50.042;8.968;2022-12-15T02:04:33;15.33;;;11.23;;
30998;SDS011;20549;50.042;8.968;2022-12-15T02:06:59;13.90;;;10.17;;
30998;SDS011;20549;50.042;8.968;2022-12-15T02:09:26;14.13;;;10.27;;
30998;SDS011;20549;50.042;8.968;2022-12-15T02:25:58;16.20;;;11.10;;
30998;SDS011;20549;50.042;8.968;2022-12-15T02:31:21;14.17;;;10.67;;
30998;SDS011;20549;50.042;8.968;2022-12-15T02:34:29;15.77;;;11.10;;
30998;SDS011;20549;50.042;8.968;2022-12-15T02:36:58;15.53;;;10.90;;
30998;SDS011;20549;50.042;8.968;2022-12-15T02:39:24;15.13;;;10.83;;
30998;SDS011;20549;50.042;8.968;2022-12-15T02:41:51;18.47;;;12.27;;
30998;SDS011;20549;50.042;8.968;2022-12-15T02:44:27;15.83;;;11.60;;
30998;SDS011;20549;50.042;8.968;2022-12-15T02:46:57;14.80;;;11.73;;
30998;SDS011;20549;50.042;8.968;2022-12-15T02:49:30;16.47;;;11.50;;
30998;SDS011;20549;50.042;8.968;2022-12-15T02:54:46;19.70;;;11.30;;
30998;SDS011;20549;50.042;8.968;2022-12-15T02:57:26;15.97;;;11.53;;
30998;SDS011;20549;50.042;8.968;2022-12-15T02:59:55;16.07;;;11.50;;
30998;SDS011;20549;50.042;8.968;2022-12-15T03:02:29;16.37;;;11.40;;
30998;SDS011;20549;50.042;8.968;2022-12-15T03:04:55;14.80;;;10.63;;
30998;SDS011;20549;50.042;8.968;2022-12-15T03:07:22;15.33;;;11.43;;
30998;SDS011;20549;50.042;8.968;2022-12-15T03:09:48;17.80;;;11.93;;
30998;SDS011;20549;50.042;8.968;2022-12-15T03:12:15;18.00;;;11.70;;
30998;SDS011;20549;50.042;8.968;2022-12-15T03:14:41;15.93;;;12.10;;
30998;SDS011;20549;50.042;8.968;2022-12-15T03:17:08;17.40;;;11.13;;
30998;SDS011;20549;50.042;8.968;2022-12-15T03:19:34;18.80;;;11.57;;
30998;SDS011;20549;50.042;8.968;2022-12-15T03:22:01;20.03;;;12.57;;
30998;SDS011;20549;50.042;8.968;2022-12-15T03:24:28;16.17;;;11.93;;
30998;SDS011;20549;50.042;8.968;2022-12-15T03:26:54;19.10;;;12.60;;
30998;SDS011;20549;50.042;8.968;2022-12-15T03:29:21;20.63;;;12.70;;
30998;SDS011;20549;50.042;8.968;2022-12-15T03:31:47;21.40;;;12.30;;
30998;SDS011;20549;50.042;8.968;2022-12-15T03:34:14;17.07;;;11.40;;
30998;SDS011;20549;50.042;8.968;2022-12-15T03:36:41;17.67;;;11.50;;
30998;SDS011;20549;50.042;8.968;2022-12-15T03:39:07;16.60;;;11.00;;
30998;SDS011;20549;50.042;8.968;2022-12-15T03:41:34;14.10;;;10.23;;
30998;SDS011;20549;50.042;8.968;2022-12-15T03:44:00;20.93;;;11.93;;
30998;SDS011;20549;50.042;8.968;2022-12-15T03:46:27;17.13;;;11.60;;
30998;SDS011;20549;50.042;8.968;2022-12-15T03:48:54;18.00;;;11.03;;
30998;SDS011;20549;50.042;8.968;2022-12-15T03:51:20;16.23;;;11.40;;
30998;SDS011;20549;50.042;8.968;2022-12-15T03:53:47;18.03;;;12.37;;
30998;SDS011;20549;50.042;8.968;2022-12-15T03:56:14;15.63;;;11.27;;
30998;SDS011;20549;50.042;8.968;2022-12-15T03:58:40;18.20;;;11.03;;
30998;SDS011;20549;50.042;8.968;2022-12-15T04:01:44;15.67;;;11.00;;
30998;SDS011;20549;50.042;8.968;2022-12-15T04:03:48;15.97;;;11.03;;
30998;SDS011;20549;50.042;8.968;2022-12-15T04:06:15;16.30;;;12.07;;
30998;SDS011;20549;50.042;8.968;2022-12-15T04:08:41;16.47;;;11.27;;
30998;SDS011;20549;50.042;8.968;2022-12-15T04:11:08;16.97;;;11.70;;
30998;SDS011;20549;50.042;8.968;2022-12-15T04:13:34;18.53;;;12.03;;
30998;SDS011;20549;50.042;8.968;2022-12-15T04:16:01;16.70;;;11.40;;
30998;SDS011;20549;50.042;8.968;2022-12-15T04:18:28;17.40;;;11.43;;
30998;SDS011;20549;50.042;8.968;2022-12-15T04:20:54;16.73;;;12.07;;
30998;SDS011;20549;50.042;8.968;2022-12-15T04:23:21;18.97;;;12.07;;
30998;SDS011;20549;50.042;8.968;2022-12-15T04:25:47;15.67;;;10.90;;
30998;SDS011;20549;50.042;8.968;2022-12-15T04:28:32;14.63;;;11.03;;
30998;SDS011;20549;50.042;8.968;2022-12-15T04:31:18;16.97;;;11.13;;
30998;SDS011;20549;50.042;8.968;2022-12-15T04:34:03;15.97;;;10.67;;
30998;SDS011;20549;50.042;8.968;2022-12-15T04:36:47;17.63;;;11.40;;
30998;SDS011;20549;50.042;8.968;2022-12-15T04:39:32;14.47;;;10.17;;
30998;SDS011;20549;50.042;8.968;2022-12-15T04:42:16;12.97;;;9.93;;
30998;SDS011;20549;50.042;8.968;2022-12-15T04:45:01;14.90;;;10.40;;
30998;SDS011;20549;50.042;8.968;2022-12-15T04:47:46;16.53;;;10.90;;
30998;SDS011;20549;50.042;8.968;2022-12-15T04:50:30;13.50;;;10.27;;
30998;SDS011;20549;50.042;8.968;2022-12-15T04:53:15;15.63;;;11.27;;
30998;SDS011;20549;50.042;8.968;2022-12-15T04:55:59;14.40;;;10.47;;
30998;SDS011;20549;50.042;8.968;2022-12-15T04:58:44;15.03;;;10.57;;
30998;SDS011;20549;50.042;8.968;2022-12-15T05:01:29;14.90;;;11.50;;
30998;SDS011;20549;50.042;8.968;2022-12-15T05:04:13;17.37;;;11.60;;
30998;SDS011;20549;50.042;8.968;2022-12-15T05:06:58;17.53;;;11.67;;
30998;SDS011;20549;50.042;8.968;2022-12-15T05:09:42;17.10;;;11.90;;
30998;SDS011;20549;50.042;8.968;2022-12-15T05:12:27;14.17;;;10.23;;
30998;SDS011;20549;50.042;8.968;2022-12-15T05:15:12;14.30;;;11.03;;
30998;SDS011;20549;50.042;8.968;2022-12-15T05:17:57;17.60;;;11.03;;
30998;SDS011;20549;50.042;8.968;2022-12-15T05:20:41;15.93;;;10.37;;
30998;SDS011;20549;50.042;8.968;2022-12-15T05:23:26;15.80;;;11.70;;
30998;SDS011;20549;50.042;8.968;2022-12-15T05:26:10;17.40;;;11.07;;
30998;SDS011;20549;50.042;8.968;2022-12-15T05:28:55;15.83;;;11.10;;
30998;SDS011;20549;50.042;8.968;2022-12-15T05:31:40;14.50;;;10.50;;
30998;SDS011;20549;50.042;8.968;2022-12-15T05:34:22;16.37;;;11.13;;
30998;SDS011;20549;50.042;8.968;2022-12-15T05:36:47;20.00;;;10.63;;
30998;SDS011;20549;50.042;8.968;2022-12-15T05:39:14;16.63;;;10.93;;
30998;SDS011;20549;50.042;8.968;2022-12-15T05:41:40;17.37;;;11.23;;
30998;SDS011;20549;50.042;8.968;2022-12-15T05:44:07;14.43;;;10.57;;
30998;SDS011;20549;50.042;8.968;2022-12-15T05:46:34;15.17;;;11.47;;
30998;SDS011;20549;50.042;8.968;2022-12-15T05:49:03;19.03;;;12.63;;
30998;SDS011;20549;50.042;8.968;2022-12-15T05:51:29;17.43;;;11.93;;
30998;SDS011;20549;50.042;8.968;2022-12-15T05:53:56;15.10;;;10.90;;
30998;SDS011;20549;50.042;8.968;2022-12-15T05:56:23;17.80;;;12.20;;
30998;SDS011;20549;50.042;8.968;2022-12-15T05:58:49;18.30;;;12.47;;
30998;SDS011;20549;50.042;8.968;2022-12-15T06:01:16;17.47;;;11.77;;
30998;SDS011;20549;50.042;8.968;2022-12-15T06:03:42;17.13;;;11.63;;
30998;SDS011;20549;50.042;8.968;2022-12-15T06:06:09;18.40;;;11.47;;
30998;SDS011;20549;50.042;8.968;2022-12-15T06:08:36;17.23;;;12.57;;
30998;SDS011;20549;50.042;8.968;2022-12-15T06:11:02;19.13;;;13.60;;
30998;SDS011;20549;50.042;8.968;2022-12-15T06:13:29;20.60;;;12.77;;
30998;SDS011;20549;50.042;8.968;2022-12-15T06:15:59;17.80;;;12.20;;
30998;SDS011;20549;50.042;8.968;2022-12-15T06:18:28;20.77;;;12.67;;
30998;SDS011;20549;50.042;8.968;2022-12-15T06:20:57;19.77;;;13.00;;
30998;SDS011;20549;50.042;8.968;2022-12-15T06:23:23;20.57;;;12.87;;
30998;SDS011;20549;50.042;8.968;2022-12-15T06:25:50;16.37;;;12.17;;
30998;SDS011;20549;50.042;8.968;2022-12-15T06:28:16;18.33;;;11.17;;
30998;SDS011;20549;50.042;8.968;2022-12-15T06:30:43;19.47;;;13.60;;
30998;SDS011;20549;50.042;8.968;2022-12-15T06:33:10;17.77;;;12.20;;
30998;SDS011;20549;50.042;8.968;2022-12-15T06:35:36;20.07;;;13.17;;
30998;SDS011;20549;50.042;8.968;2022-12-15T06:38:03;17.40;;;12.00;;
30998;SDS011;20549;50.042;8.968;2022-12-15T06:40:29;18.03;;;11.57;;
30998;SDS011;20549;50.042;8.968;2022-12-15T06:42:56;17.77;;;11.57;;
30998;SDS011;20549;50.042;8.968;2022-12-15T06:45:22;17.03;;;11.57;;
30998;SDS011;20549;50.042;8.968;2022-12-15T06:47:49;17.57;;;11.13;;
30998;SDS011;20549;50.042;8.968;2022-12-15T06:50:16;20.13;;;11.37;;
30998;SDS011;20549;50.042;8.968;2022-12-15T06:52:42;15.87;;;11.70;;
30998;SDS011;20549;50.042;8.968;2022-12-15T06:55:09;14.07;;;10.77;;
30998;SDS011;20549;50.042;8.968;2022-12-15T06:57:35;16.73;;;10.90;;
30998;SDS011;20549;50.042;8.968;2022-12-15T07:00:03;21.27;;;12.67;;
30998;SDS011;20549;50.042;8.968;2022-12-15T07:02:29;27.10;;;14.37;;
30998;SDS011;20549;50.042;8.968;2022-12-15T07:04:55;24.60;;;13.60;;
30998;SDS011;20549;50.042;8.968;2022-12-15T07:07:22;26.40;;;12.97;;
30998;SDS011;20549;50.042;8.968;2022-12-15T07:09:48;17.87;;;11.37;;
30998;SDS011;20549;50.042;8.968;2022-12-15T07:12:15;16.40;;;10.97;;
30998;SDS011;20549;50.042;8.968;2022-12-15T07:14:42;14.03;;;11.37;;
30998;SDS011;20549;50.042;8.968;2022-12-15T07:17:08;16.30;;;12.30;;
30998;SDS011;20549;50.042;8.968;2022-12-15T07:19:38;16.13;;;11.87;;
30998;SDS011;20549;50.042;8.968;2022-12-15T07:22:04;15.67;;;11.50;;
30998;SDS011;20549;50.042;8.968;2022-12-15T07:24:31;14.17;;;10.97;;
30998;SDS011;20549;50.042;8.968;2022-12-15T07:26:57;16.53;;;12.10;;
30998;SDS011;20549;50.042;8.968;2022-12-15T07:29:24;16.43;;;10.80;;
30998;SDS011;20549;50.042;8.968;2022-12-15T07:31:51;17.80;;;11.73;;
30998;SDS011;20549;50.042;8.968;2022-12-15T07:34:17;17.53;;;11.93;;
30998;SDS011;20549;50.042;8.968;2022-12-15T07:36:44;15.63;;;11.70;;
30998;SDS011;20549;50.042;8.968;2022-12-15T07:39:10;17.23;;;11.90;;
30998;SDS011;20549;50.042;8.968;2022-12-15T07:41:37;13.40;;;10.83;;
30998;SDS011;20549;50.042;8.968;2022-12-15T07:44:04;16.60;;;11.00;;
30998;SDS011;20549;50.042;8.968;2022-12-15T07:46:30;12.53;;;9.63;;
30998;SDS011;20549;50.042;8.968;2022-12-15T07:48:57;15.27;;;11.23;;
30998;SDS011;20549;50.042;8.968;2022-12-15T07:51:23;16.40;;;12.23;;
30998;SDS011;20549;50.042;8.968;2022-12-15T07:53:50;18.90;;;12.57;;
30998;SDS011;20549;50.042;8.968;2022-12-15T07:56:17;16.70;;;11.47;;
30998;SDS011;20549;50.042;8.968;2022-12-15T07:58:43;16.60;;;12.13;;
30998;SDS011;20549;50.042;8.968;2022-12-15T08:01:10;15.20;;;11.77;;
30998;SDS011;20549;50.042;8.968;2022-12-15T08:03:37;17.40;;;11.13;;
30998;SDS011;20549;50.042;8.968;2022-12-15T08:06:03;13.97;;;10.60;;
30998;SDS011;20549;50.042;8.968;2022-12-15T08:08:30;15.37;;;11.17;;
30998;SDS011;20549;50.042;8.968;2022-12-15T08:10:56;18.80;;;12.60;;
30998;SDS011;20549;50.042;8.968;2022-12-15T08:13:23;16.10;;;10.87;;
30998;SDS011;20549;50.042;8.968;2022-12-15T08:15:52;18.73;;;11.80;;
30998;SDS011;20549;50.042;8.968;2022-12-15T08:18:19;14.97;;;10.97;;
30998;SDS011;20549;50.042;8.968;2022-12-15T08:20:45;16.40;;;11.53;;
30998;SDS011;20549;50.042;8.968;2022-12-15T08:23:12;18.20;;;12.00;;
30998;SDS011;20549;50.042;8.968;2022-12-15T08:25:38;18.00;;;12.17;;
30998;SDS011;20549;50.042;8.968;2022-12-15T08:28:05;18.77;;;12.87;;
30998;SDS011;20549;50.042;8.968;2022-12-15T08:30:32;14.73;;;11.77;;
30998;SDS011;20549;50.042;8.968;2022-12-15T08:32:58;16.73;;;12.40;;
30998;SDS011;20549;50.042;8.968;2022-12-15T08:35:25;15.13;;;10.67;;
30998;SDS011;20549;50.042;8.968;2022-12-15T08:37:51;17.37;;;12.13;;
30998;SDS011;20549;50.042;8.968;2022-12-15T08:40:18;18.23;;;12.50;;
30998;SDS011;20549;50.042;8.968;2022-12-15T08:42:45;15.80;;;11.27;;
30998;SDS011;20549;50.042;8.968;2022-12-15T08:45:11;19.87;;;12.43;;
30998;SDS011;20549;50.042;8.968;2022-12-15T08:47:38;17.50;;;12.67;;
30998;SDS011;20549;50.042;8.968;2022-12-15T08:50:05;18.77;;;13.17;;
30998;SDS011;20549;50.042;8.968;2022-12-15T08:52:31;16.43;;;11.97;;
30998;SDS011;20549;50.042;8.968;2022-12-15T08:54:57;15.97;;;11.70;;
30998;SDS011;20549;50.042;8.968;2022-12-15T08:57:24;16.13;;;12.30;;
30998;SDS011;20549;50.042;8.968;2022-12-15T08:59:51;16.57;;;11.37;;
30998;SDS011;20549;50.042;8.968;2022-12-15T09:02:17;16.20;;;11.97;;
30998;SDS011;20549;50.042;8.968;2022-12-15T09:04:44;16.07;;;11.50;;
30998;SDS011;20549;50.042;8.968;2022-12-15T09:07:10;17.83;;;12.30;;
30998;SDS011;20549;50.042;8.968;2022-12-15T09:09:37;17.50;;;12.43;;
30998;SDS011;20549;50.042;8.968;2022-12-15T09:12:04;15.63;;;11.93;;
30998;SDS011;20549;50.042;8.968;2022-12-15T09:14:30;12.83;;;9.73;;
30998;SDS011;20549;50.042;8.968;2022-12-15T09:16:57;17.63;;;12.63;;
30998;SDS011;20549;50.042;8.968;2022-12-15T09:19:23;16.83;;;12.37;;
30998;SDS011;20549;50.042;8.968;2022-12-15T09:21:50;17.53;;;12.90;;
30998;SDS011;20549;50.042;8.968;2022-12-15T09:24:17;16.10;;;11.83;;
30998;SDS011;20549;50.042;8.968;2022-12-15T09:26:43;16.00;;;11.93;;
30998;SDS011;20549;50.042;8.968;2022-12-15T09:29:10;13.73;;;11.33;;
30998;SDS011;20549;50.042;8.968;2022-12-15T09:31:36;15.30;;;11.27;;
30998;SDS011;20549;50.042;8.968;2022-12-15T09:34:03;17.13;;;11.77;;
30998;SDS011;20549;50.042;8.968;2022-12-15T09:36:30;14.70;;;11.40;;
30998;SDS011;20549;50.042;8.968;2022-12-15T09:38:56;13.57;;;11.47;;
30998;SDS011;20549;50.042;8.968;2022-12-15T09:41:26;17.13;;;12.90;;
30998;SDS011;20549;50.042;8.968;2022-12-15T09:43:51;16.67;;;12.10;;
30998;SDS011;20549;50.042;8.968;2022-12-15T09:46:25;14.60;;;10.43;;
30998;SDS011;20549;50.042;8.968;2022-12-15T09:49:11;15.10;;;11.13;;
30998;SDS011;20549;50.042;8.968;2022-12-15T09:51:38;15.97;;;10.90;;
30998;SDS011;20549;50.042;8.968;2022-12-15T09:54:07;14.90;;;11.07;;
30998;SDS011;20549;50.042;8.968;2022-12-15T09:56:43;15.83;;;11.53;;
30998;SDS011;20549;50.042;8.968;2022-12-15T09:59:36;14.67;;;11.80;;
30998;SDS011;20549;50.042;8.968;2022-12-15T10:04:43;14.40;;;11.50;;
30998;SDS011;20549;50.042;8.968;2022-12-15T10:07:09;13.57;;;10.87;;
30998;SDS011;20549;50.042;8.968;2022-12-15T10:09:33;13.33;;;11.37;;
30998;SDS011;20549;50.042;8.968;2022-12-15T10:12:09;14.60;;;11.23;;
30998;SDS011;20549;50.042;8.968;2022-12-15T10:14:43;15.30;;;11.43;;
30998;SDS011;20549;50.042;8.968;2022-12-15T10:17:23;17.13;;;12.20;;
30998;SDS011;20549;50.042;8.968;2022-12-15T10:22:37;18.47;;;12.93;;
30998;SDS011;20549;50.042;8.968;2022-12-15T10:28:05;15.40;;;11.80;;
30998;SDS011;20549;50.042;8.968;2022-12-15T10:30:27;14.57;;;11.93;;
30998;SDS011;20549;50.042;8.968;2022-12-15T10:33:00;16.87;;;12.50;;
30998;SDS011;20549;50.042;8.968;2022-12-15T10:35:25;18.17;;;13.00;;
30998;SDS011;20549;50.042;8.968;2022-12-15T10:37:50;15.10;;;11.27;;
30998;SDS011;20549;50.042;8.968;2022-12-15T10:40:18;14.60;;;11.17;;
30998;SDS011;20549;50.042;8.968;2022-12-15T10:42:45;14.33;;;11.70;;
30998;SDS011;20549;50.042;8.968;2022-12-15T10:45:28;15.70;;;11.30;;
30998;SDS011;20549;50.042;8.968;2022-12-15T10:47:36;16.97;;;12.80;;
30998;SDS011;20549;50.042;8.968;2022-12-15T10:52:48;18.93;;;12.40;;
30998;SDS011;20549;50.042;8.968;2022-12-15T10:55:30;19.67;;;13.13;;
30998;SDS011;20549;50.042;8.968;2022-12-15T10:57:57;18.27;;;12.80;;
30998;SDS011;20549;50.042;8.968;2022-12-15T11:00:24;17.67;;;13.70;;
30998;SDS011;20549;50.042;8.968;2022-12-15T11:02:51;15.33;;;11.97;;
30998;SDS011;20549;50.042;8.968;2022-12-15T11:05:18;18.37;;;12.93;;
30998;SDS011;20549;50.042;8.968;2022-12-15T11:07:45;17.30;;;12.17;;
30998;SDS011;20549;50.042;8.968;2022-12-15T11:10:16;22.33;;;13.63;;
30998;SDS011;20549;50.042;8.968;2022-12-15T11:12:54;20.23;;;13.77;;
30998;SDS011;20549;50.042;8.968;2022-12-15T11:20:19;20.90;;;13.47;;
30998;SDS011;20549;50.042;8.968;2022-12-15T11:22:52;19.30;;;12.87;;
30998;SDS011;20549;50.042;8.968;2022-12-15T11:27:50;17.40;;;12.70;;
30998;SDS011;20549;50.042;8.968;2022-12-15T11:30:17;23.10;;;14.20;;
30998;SDS011;20549;50.042;8.968;2022-12-15T11:32:49;18.77;;;13.50;;
30998;SDS011;20549;50.042;8.968;2022-12-15T11:35:12;17.00;;;12.40;;
30998;SDS011;20549;50.042;8.968;2022-12-15T11:45:23;15.53;;;12.13;;
30998;SDS011;20549;50.042;8.968;2022-12-15T11:47:59;18.53;;;13.23;;
30998;SDS011;20549;50.042;8.968;2022-12-15T11:53:08;22.47;;;15.33;;
30998;SDS011;20549;50.042;8.968;2022-12-15T11:55:56;19.80;;;13.67;;
30998;SDS011;20549;50.042;8.968;2022-12-15T12:01:09;19.73;;;13.87;;
30998;SDS011;20549;50.042;8.968;2022-12-15T12:06:37;18.63;;;13.30;;
30998;SDS011;20549;50.042;8.968;2022-12-15T12:11:39;20.50;;;12.83;;
30998;SDS011;20549;50.042;8.968;2022-12-15T12:14:20;17.30;;;12.37;;
30998;SDS011;20549;50.042;8.968;2022-12-15T12:22:29;19.67;;;13.57;;
30998;SDS011;20549;50.042;8.968;2022-12-15T12:25:01;19.67;;;13.77;;
30998;SDS011;20549;50.042;8.968;2022-12-15T12:27:10;18.73;;;13.77;;
30998;SDS011;20549;50.042;8.968;2022-12-15T12:29:48;16.47;;;13.63;;
30998;SDS011;20549;50.042;8.968;2022-12-15T12:37:33;18.97;;;13.33;;
30998;SDS011;20549;50.042;8.968;2022-12-15T12:40:04;20.10;;;13.43;;
30998;SDS011;20549;50.042;8.968;2022-12-15T12:42:31;19.23;;;13.53;;
30998;SDS011;20549;50.042;8.968;2022-12-15T12:45:01;16.40;;;12.97;;
30998;SDS011;20549;50.042;8.968;2022-12-15T12:47:32;19.27;;;13.80;;
30998;SDS011;20549;50.042;8.968;2022-12-15T12:50:01;18.07;;;13.07;;
30998;SDS011;20549;50.042;8.968;2022-12-15T12:52:30;17.20;;;12.87;;
30998;SDS011;20549;50.042;8.968;2022-12-15T12:54:59;18.53;;;13.17;;
30998;SDS011;20549;50.042;8.968;2022-12-15T13:00:02;17.30;;;12.77;;
30998;SDS011;20549;50.042;8.968;2022-12-15T13:04:59;15.43;;;11.90;;
30998;SDS011;20549;50.042;8.968;2022-12-15T13:12:46;16.10;;;11.87;;
30998;SDS011;20549;50.042;8.968;2022-12-15T13:15:28;15.80;;;11.60;;
30998;SDS011;20549;50.042;8.968;2022-12-15T13:20:40;16.23;;;11.83;;
30998;SDS011;20549;50.042;8.968;2022-12-15T13:28:23;18.17;;;12.37;;
30998;SDS011;20549;50.042;8.968;2022-12-15T13:31:13;16.83;;;11.60;;
30998;SDS011;20549;50.042;8.968;2022-12-15T13:33:44;13.47;;;11.00;;
30998;SDS011;20549;50.042;8.968;2022-12-15T13:36:59;15.57;;;11.67;;
30998;SDS011;20549;50.042;8.968;2022-12-15T13:38:57;15.97;;;11.50;;
30998;SDS011;20549;50.042;8.968;2022-12-15T13:41:24;16.13;;;11.17;;
30998;SDS011;20549;50.042;8.968;2022-12-15T13:43:51;14.97;;;10.83;;
30998;SDS011;20549;50.042;8.968;2022-12-15T13:46:19;15.80;;;11.17;;
30998;SDS011;20549;50.042;8.968;2022-12-15T13:49:13;17.50;;;11.57;;
30998;SDS011;20549;50.042;8.968;2022-12-15T13:51:24;16.03;;;11.40;;
30998;SDS011;20549;50.042;8.968;2022-12-15T13:53:57;17.37;;;12.03;;
30998;SDS011;20549;50.042;8.968;2022-12-15T13:59:02;16.60;;;12.30;;
30998;SDS011;20549;50.042;8.968;2022-12-15T14:01:28;17.73;;;12.93;;
30998;SDS011;20549;50.042;8.968;2022-12-15T14:03:57;17.07;;;11.93;;
30998;SDS011;20549;50.042;8.968;2022-12-15T14:06:33;20.70;;;13.70;;
30998;SDS011;20549;50.042;8.968;2022-12-15T14:08:55;19.47;;;12.87;;
30998;SDS011;20549;50.042;8.968;2022-12-15T14:11:22;19.90;;;12.77;;
30998;SDS011;20549;50.042;8.968;2022-12-15T14:13:48;21.33;;;13.47;;
30998;SDS011;20549;50.042;8.968;2022-12-15T14:16:18;19.20;;;13.50;;
30998;SDS011;20549;50.042;8.968;2022-12-15T14:18:44;20.67;;;13.60;;
30998;SDS011;20549;50.042;8.968;2022-12-15T14:21:21;18.47;;;12.70;;
30998;SDS011;20549;50.042;8.968;2022-12-15T14:23:46;19.43;;;13.53;;
30998;SDS011;20549;50.042;8.968;2022-12-15T14:26:13;19.37;;;13.20;;
30998;SDS011;20549;50.042;8.968;2022-12-15T14:28:44;17.40;;;12.30;;
30998;SDS011;20549;50.042;8.968;2022-12-15T14:31:27;15.57;;;11.43;;
30998;SDS011;20549;50.042;8.968;2022-12-15T14:33:33;19.37;;;12.27;;
30998;SDS011;20549;50.042;8.968;2022-12-15T14:35:59;18.27;;;11.77;;
30998;SDS011;20549;50.042;8.968;2022-12-15T14:38:29;19.87;;;12.77;;
30998;SDS011;20549;50.042;8.968;2022-12-15T14:41:17;19.57;;;13.13;;
30998;SDS011;20549;50.042;8.968;2022-12-15T14:43:35;24.63;;;14.73;;
30998;SDS011;20549;50.042;8.968;2022-12-15T14:46:07;18.43;;;12.13;;
30998;SDS011;20549;50.042;8.968;2022-12-15T14:48:32;18.03;;;13.67;;
30998;SDS011;20549;50.042;8.968;2022-12-15T14:50:57;20.40;;;12.63;;
30998;SDS011;20549;50.042;8.968;2022-12-15T14:53:23;24.53;;;15.20;;
30998;SDS011;20549;50.042;8.968;2022-12-15T14:55:49;23.27;;;15.33;;
30998;SDS011;20549;50.042;8.968;2022-12-15T14:58:28;24.83;;;16.87;;
30998;SDS011;20549;50.042;8.968;2022-12-15T15:00:52;23.50;;;14.80;;
30998;SDS011;20549;50.042;8.968;2022-12-15T15:03:19;26.83;;;16.80;;
30998;SDS011;20549;50.042;8.968;2022-12-15T15:05:52;30.93;;;19.00;;
30998;SDS011;20549;50.042;8.968;2022-12-15T15:08:25;23.20;;;15.37;;
30998;SDS011;20549;50.042;8.968;2022-12-15T15:10:50;23.70;;;16.03;;
30998;SDS011;20549;50.042;8.968;2022-12-15T15:13:20;22.20;;;14.60;;
30998;SDS011;20549;50.042;8.968;2022-12-15T15:15:52;21.80;;;14.77;;
30998;SDS011;20549;50.042;8.968;2022-12-15T15:18:22;24.77;;;15.77;;
30998;SDS011;20549;50.042;8.968;2022-12-15T15:20:54;20.43;;;14.47;;
30998;SDS011;20549;50.042;8.968;2022-12-15T15:23:17;22.80;;;14.63;;
30998;SDS011;20549;50.042;8.968;2022-12-15T15:25:52;22.93;;;14.43;;
30998;SDS011;20549;50.042;8.968;2022-12-15T15:30:46;21.57;;;13.27;;
30998;SDS011;20549;50.042;8.968;2022-12-15T15:33:12;20.17;;;13.40;;
30998;SDS011;20549;50.042;8.968;2022-12-15T15:35:39;20.70;;;13.50;;
30998;SDS011;20549;50.042;8.968;2022-12-15T15:38:15;19.67;;;13.10;;
30998;SDS011;20549;50.042;8.968;2022-12-15T15:40:37;21.43;;;13.47;;
30998;SDS011;20549;50.042;8.968;2022-12-15T15:43:10;23.83;;;14.43;;
30998;SDS011;20549;50.042;8.968;2022-12-15T15:45:37;20.73;;;12.80;;
30998;SDS011;20549;50.042;8.968;2022-12-15T15:48:03;19.23;;;13.53;;
30998;SDS011;20549;50.042;8.968;2022-12-15T15:50:30;20.23;;;13.10;;
30998;SDS011;20549;50.042;8.968;2022-12-15T15:52:56;18.90;;;13.00;;
30998;SDS011;20549;50.042;8.968;2022-12-15T15:55:27;19.47;;;12.47;;
30998;SDS011;20549;50.042;8.968;2022-12-15T15:57:52;18.53;;;13.53;;
30998;SDS011;20549;50.042;8.968;2022-12-15T16:00:20;21.87;;;14.00;;
30998;SDS011;20549;50.042;8.968;2022-12-15T16:02:46;21.07;;;12.80;;
30998;SDS011;20549;50.042;8.968;2022-12-15T16:05:13;22.00;;;14.03;;
30998;SDS011;20549;50.042;8.968;2022-12-15T16:07:39;19.37;;;12.80;;
30998;SDS011;20549;50.042;8.968;2022-12-15T16:10:09;22.80;;;14.20;;
30998;SDS011;20549;50.042;8.968;2022-12-15T16:12:45;22.20;;;14.37;;
30998;SDS011;20549;50.042;8.968;2022-12-15T16:15:15;21.40;;;14.00;;